Tiempo atmosférico en la estación meteorológica de Cáseda, Navarra (440 m.)



Fecha
DESCASC
Temp. máxima en grados centígrados (hora)
DESCASC
Temp. mínima en grados centígrados (hora)
DESCASC
Temp. media en grados centígrados
DESCASC
Racha de viento máxima en m/sg (hora)
DESCASC
Velocidad máxima media en intervalos de 10 minutos(hora)
DESCASC
Precipitaciones diarias en mm
DESCASC
Precipitaciones de 00:00 a 06:00 en mm
DESCASC
Precipitaciones de 06:00 a 12:00 en mm
DESCASC
Precipitaciones de 12:00 a 18:00 en mm
DESCASC
Precipitaciones de 18:00 a 24:00 en mm
DESCASC
16-01-2020 14.9 (15:40) -1.5 (08:50) 6.7 8.61 (19:10) 4.72 (19:10) 0 0 0 0 0
15-01-2020 10.8 (16:00) -0.4 (02:30) 5.2 5.28 (14:50) 3.33 (14:50) 0 0 0 0 0
14-01-2020 9 (15:00) -3.5 (08:30) 2.8 6.67 (15:20) 4.44 (17:40) 0 0 0 0 0
13-01-2020 5.9 (15:30) -3.5 (08:30) 1.2 5 (18:00) 3.89 (18:00) 0 0 0 0 0
12-01-2020 8 (15:20) -3.2 (-00:0) 2.4 3.06 (17:30) 1.94 (17:30) 0 0 0 0 0
11-01-2020 10.6 (15:10) -0.3 (00:00) 5.2 8.33 (02:40) 4.72 (02:40) 0 0 0 0 0
10-01-2020 9.6 (13:50) 5.7 (00:00) 7.7 11.67 (22:00) 6.11 (21:40) 0.2 0 0.2 0 0
09-01-2020 6.3 (15:20) 0.3 (00:00) 3.3 7.22 (15:50) 4.72 (14:30) 0.8 0 0 0 0.8
08-01-2020 11.8 (15:00) 0.1 (00:00) 6 6.94 (15:10) 4.72 (15:50) 0 0 0 0 0
07-01-2020 8.6 (15:20) -1.6 (-00:0) 3.5 4.17 (02:10) 2.5 (00:30) 0 0 0 0 0
06-01-2020 3.7 (16:20) -2.5 (-00:0) 0.6 3.06 (23:10) 1.94 (22:10) 0 0 0 0 0
05-01-2020 10.2 (15:20) -0.9 (-00:0) 4.6 2.78 (00:40) 1.94 (00:40) 0 0 0 0 0
04-01-2020 12 (13:50) 5.1 (00:00) 8.5 11.39 (14:30) 5 (14:00) 0 0 0 0 0
03-01-2020 9.8 (17:30) -0.5 (-00:0) 4.7 7.22 (17:20) 4.72 (17:20) 0 0 0 0 0
02-01-2020 2.6 (15:40) -0.9 (-00:0) 0.8 7.22 (14:50) 4.72 (14:50) 0 0 0 0 0
01-01-2020 2.2 (16:50) -0.4 (00:00) 0.9 3.89 (07:20) 2.5 (07:20) 0 0 0 0 0
31-12-2019 2.6 (15:40) 0.9 (00:00) 1.7 3.89 (07:40) 3.06 (07:40) 0 0 0 0 0
30-12-2019 -- (--) -- (--) -- -- (--) -- (--) -- 0 0 0 --
29-12-2019 3.5 (15:30) -1 (-00:0) 1.3 2.78 (21:40) 1.39 (21:40) 0 0 0 0 0
28-12-2019 9.7 (15:20) -1.6 (-00:0) 4 3.61 (17:30) 2.5 (17:30) 0 0 0 0 0
27-12-2019 8.9 (15:10) -0.8 (-00:0) 4 4.17 (06:10) 2.5 (05:30) 0 0 0 0 0
26-12-2019 12.5 (12:10) 1.7 (00:00) 7.1 11.67 (12:20) 6.67 (12:30) 0 0 0 0 0
25-12-2019 7.2 (16:10) 2.9 (00:00) 5 2.78 (20:50) 1.39 (20:40) 0 0 0 0 0
24-12-2019 12.2 (15:20) 2.3 (00:00) 7.2 4.72 (01:20) 2.22 (19:10) 0 0 0 0 0
23-12-2019 12 (13:20) 4 (00:00) 8 7.5 (00:10) 3.33 (00:10) 0 0 0 0 0
22-12-2019 12.5 (13:50) 7.6 (00:00) 10 22.78 (02:40) 13.33 (02:30) 1.8 0.4 0 1.2 0.2
21-12-2019 12.4 (16:00) 6 (00:00) 9.2 21.94 (18:40) 11.39 (22:50) 7.2 0.2 1.2 1.4 4.4
20-12-2019 14.1 (03:50) 8.7 (00:00) 11.4 26.67 (04:20) 11.94 (04:20) 17.2 4.8 1 1.2 10.2

Gráficas

Temp. máximas Temp. mínimas Temp. medias Precipitaciones Rachas de viento máximas Velocidades máximas media en intervalos de 10 minutos

Datos horarios

Fecha y hora oficial Temperatura (ºC) Velocidad del viento (km/h) Dirección del viento Racha (km/h) Dirección de racha Precipitación (mm) Presión (hPa) Tendencia (hPa) Humedad (%)
2020-01-18 23:00:00 5 7 Nordeste 26 Norte 5.8 -- -- 91
2020-01-18 22:00:00 6.6 7 Noroeste 15 Oeste 4 -- -- 95
2020-01-18 21:00:00 6.8 3 Noroeste 11 Sudeste 0.2 -- -- 92
2020-01-18 20:00:00 7 5 Sudoeste 15 Oeste 2 -- -- 90
2020-01-18 19:00:00 7.8 4 Este 18 Sudeste 0.2 -- -- 83
2020-01-18 18:00:00 9 9 Este 17 Este 0 -- -- 73
2020-01-18 17:00:00 9.9 5 Este 29 Sur 0 -- -- 65
2020-01-18 16:00:00 10.1 17 Sur 30 Sur 0 -- -- 65
2020-01-18 15:00:00 10.7 12 Sur 24 Sudeste 0 -- -- 62
2020-01-18 14:00:00 9.4 3 Este 8 Norte 0 -- -- 69
2020-01-18 13:00:00 7.4 3 Norte 6 Norte 0 -- -- 76
2020-01-18 12:00:00 5.8 4 Norte 7 Noroeste 0 -- -- 76
2020-01-18 11:00:00 4.1 4 Noroeste 6 Noroeste 0 -- -- 85
2020-01-18 10:00:00 2.6 3 Sudeste 9 Sudoeste 0 -- -- 94
2020-01-18 09:00:00 1.1 6 Sudoeste 11 Oeste 0 -- -- 95
2020-01-18 08:00:00 1 4 Sudeste 6 Sudeste 0 -- -- 94
2020-01-18 07:00:00 0.8 2 Sur 9 Sur 0 -- -- 94
2020-01-18 06:00:00 0.6 3 Oeste 5 Oeste 0 -- -- 93
2020-01-18 05:00:00 0.7 2 Sur 6 Sudoeste 0 -- -- 92
2020-01-18 04:00:00 0.9 0 Calma 5 Oeste 0 -- -- 92
2020-01-18 03:00:00 0.6 4 Oeste 8 Oeste 0 -- -- 91
2020-01-18 02:00:00 1.7 0 Calma 3 Nordeste 0 -- -- 86
2020-01-18 01:00:00 2.8 3 Este 4 Sur 0 -- -- 84
2020-01-18 00:00:00 3.8 4 Sudeste 11 Sudeste 0 -- -- 80
2020-01-17 23:00:00 3.8 5 Sudeste 13 Norte 0 -- -- 81
2020-01-17 22:00:00 5.2 2 Sudeste 8 Nordeste 0 -- -- 77
2020-01-17 21:00:00 6 4 Noroeste 21 Norte 0 -- -- 76
2020-01-17 20:00:00 5.9 4 Nordeste 13 Norte 0 -- -- 76
2020-01-17 19:00:00 6.9 9 Nordeste 18 Nordeste 0 -- -- 73
2020-01-17 18:00:00 7.7 6 Noroeste 14 Norte 0 -- -- 70
2020-01-17 17:00:00 9.2 7 Norte 28 Norte 0 -- -- 66
2020-01-17 16:00:00 9.9 13 Norte 24 Norte 0 -- -- 65
2020-01-17 15:00:00 9.7 12 Norte 21 Nordeste 0 -- -- 69
2020-01-17 14:00:00 9.4 6 Nordeste 32 Norte 0.2 -- -- 78
2020-01-17 13:00:00 8.1 21 Norte 35 Noroeste 0.2 -- -- 80
2020-01-17 12:00:00 9.3 4 Noroeste 16 Noroeste 0.2 -- -- 84
2020-01-17 11:00:00 7.2 4 Nordeste 9 Oeste 0 -- -- 93
2020-01-17 10:00:00 6.5 6 Noroeste 16 Sudeste 0.2 -- -- 91
2020-01-17 09:00:00 5.1 3 Sur 10 Sudoeste 0 -- -- 93
2020-01-17 08:00:00 5.5 2 Oeste 7 Sudoeste 0 -- -- 90
2020-01-17 07:00:00 5.7 3 Este 8 Oeste 0 -- -- 89
2020-01-17 06:00:00 6.8 6 Sudoeste 10 Oeste 0 -- -- 87
2020-01-17 05:00:00 7.7 3 Sudoeste 8 Sur 0 -- -- 85
2020-01-17 04:00:00 8.6 2 Oeste 22 Sur 0 -- -- 83
2020-01-17 03:00:00 10.1 15 Sur 37 Sudeste 0 -- -- 74
2020-01-17 02:00:00 9.2 14 Sur 24 Sur 0.4 -- -- 82
2020-01-17 01:00:00 8.8 3 Este 10 Noroeste 0 -- -- 81
2020-01-17 00:00:00 9.4 3 Oeste 16 Sudeste 0 -- -- 76
2020-01-16 23:00:00 9.8 4 Nordeste 28 Sur 0 -- -- 74
2020-01-16 22:00:00 10.8 12 Sur 30 Sur 0 -- -- 70
2020-01-16 21:00:00 9.7 11 Sur 19 Sur 0 -- -- 75
2020-01-16 20:00:00 10.6 8 Sudeste 31 Sur 0 -- -- 72
2020-01-16 19:00:00 11.4 12 Sur 23 Sur 0 -- -- 69
2020-01-16 18:00:00 12.1 9 Sur 31 Sudeste 0 -- -- 69
2020-01-16 17:00:00 13.4 14 Sur 28 Sur 0 -- -- 66
2020-01-16 16:00:00 14.6 12 Sur 28 Sudeste 0 -- -- 61
2020-01-16 15:00:00 14.5 13 Sur 27 Sudeste 0 -- -- 62
2020-01-16 14:00:00 12 10 Sudeste 27 Sudeste 0 -- -- 72
2020-01-16 13:00:00 8.2 3 Nordeste 6 Norte 0 -- -- 78
2020-01-16 12:00:00 5.5 2 Norte 6 Noroeste 0 -- -- 87
2020-01-16 11:00:00 3.1 4 Nordeste 8 Este 0 -- -- 93
2020-01-16 10:00:00 1.9 3 Nordeste 8 Sudeste 0 -- -- 97
2020-01-16 09:00:00 -1.1 6 Sur 8 Sur 0 -- -- 97
2020-01-16 08:00:00 -0.3 4 Sudoeste 8 Sur 0 -- -- 97
2020-01-16 07:00:00 0.8 2 Nordeste 6 Este 0 -- -- 96
2020-01-16 06:00:00 0.4 3 Sudoeste 8 Sur 0 -- -- 97
2020-01-16 05:00:00 0.8 5 Oeste 6 Sudeste 0 -- -- 95
2020-01-16 04:00:00 1.4 0 Calma 5 Sur 0 -- -- 95
2020-01-16 03:00:00 2 0 Calma 5 Nordeste 0 -- -- 93
2020-01-16 02:00:00 2.7 2 Este 4 Sur 0 -- -- 93
2020-01-16 01:00:00 2.9 0 Calma 6 Sudoeste 0 -- -- 93
2020-01-16 00:00:00 3.5 3 Sudoeste 6 Sudeste 0 -- -- 88
2020-01-15 23:00:00 4.2 3 Sudeste 8 Sur 0 -- -- 89
2020-01-15 22:00:00 5 6 Sur 13 Sur 0 -- -- 88
2020-01-15 21:00:00 6.1 5 Sudoeste 10 Sudoeste 0 -- -- 82
2020-01-15 20:00:00 7.1 7 Sur 13 Sur 0 -- -- 81
2020-01-15 19:00:00 8 4 Sur 12 Sur 0 -- -- 79
2020-01-15 18:00:00 9 3 Sudoeste 8 Sur 0 -- -- 76
2020-01-15 17:00:00 10 3 Nordeste 10 Noroeste 0 -- -- 70
2020-01-15 16:00:00 10.8 4 Norte 8 Sudeste 0 -- -- 68
2020-01-15 15:00:00 10.4 6 Sur 19 Sur 0 -- -- 68
2020-01-15 14:00:00 8.6 3 Nordeste 9 Norte 0 -- -- 73
2020-01-15 13:00:00 7.3 6 Norte 13 Sudeste 0 -- -- 78
2020-01-15 12:00:00 3.3 9 Sudeste 13 Sudeste 0 -- -- 89
2020-01-15 11:00:00 2.3 2 Sur 9 Sur 0 -- -- 91
2020-01-15 10:00:00 1.9 3 Este 8 Sudeste 0 -- -- 91
2020-01-15 09:00:00 0.9 0 Calma 9 Sur 0 -- -- 90
2020-01-15 08:00:00 0.4 3 Oeste 9 Noroeste 0 -- -- 89
2020-01-15 07:00:00 0.8 3 Este 12 Sudeste 0 -- -- 92
2020-01-15 06:00:00 0 2 Sudeste 9 Nordeste 0 -- -- 91
2020-01-15 05:00:00 0.9 3 Nordeste 10 Sur 0 -- -- 89
2020-01-15 04:00:00 1 4 Oeste 8 Oeste 0 -- -- 90
2020-01-15 03:00:00 0.7 9 Sudoeste 13 Sur 0 -- -- 94
2020-01-15 02:00:00 0.3 2 Norte 6 Este 0 -- -- 90
2020-01-15 01:00:00 0.3 3 Oeste 7 Sudoeste 0 -- -- 92
2020-01-15 00:00:00 1.3 3 Nordeste 8 Sudeste 0 -- -- 91
2020-01-14 23:00:00 0.9 5 Sur 8 Sur 0 -- -- 91
2020-01-14 22:00:00 2.2 2 Norte 6 Sudeste 0 -- -- 87
2020-01-14 21:00:00 2.5 2 Este 9 Sudeste 0 -- -- 85
2020-01-14 20:00:00 3.9 3 Noroeste 21 Sur 0 -- -- 81
2020-01-14 19:00:00 4.2 15 Sur 21 Sur 0 -- -- 83
2020-01-14 18:00:00 5.5 12 Sur 22 Sur 0 -- -- 80
2020-01-14 17:00:00 7.1 11 Sudoeste 18 Sudoeste 0 -- -- 75
2020-01-14 16:00:00 8.1 7 Sudoeste 24 Sudoeste 0 -- -- 71
2020-01-14 15:00:00 9 14 Sur 20 Sur 0 -- -- 68
2020-01-14 14:00:00 6.6 2 Este 4 Este 0 -- -- 69
2020-01-14 13:00:00 3.8 0 Calma 5 Norte 0 -- -- 84
2020-01-14 12:00:00 1.1 0 Calma 5 Nordeste 0 -- -- 98
2020-01-14 11:00:00 -1 2 Este 4 Nordeste 0 -- -- 99
2020-01-14 10:00:00 -2.7 0 Calma 5 Noroeste 0 -- -- 98
2020-01-14 09:00:00 -3.3 2 Sur 8 Sur 0 -- -- 98
2020-01-14 08:00:00 -3.3 3 Noroeste 9 Sur 0 -- -- 97
2020-01-14 07:00:00 -3.1 4 Sur 13 Sur 0 -- -- 97
2020-01-14 06:00:00 -2.4 5 Este 14 Sur 0 -- -- 97
2020-01-14 05:00:00 -2 9 Sur 12 Sur 0 -- -- 98
2020-01-14 04:00:00 -1.9 5 Sudeste 13 Sur 0 -- -- 97
2020-01-14 03:00:00 -1.6 9 Sur 12 Sur 0 -- -- 97
2020-01-14 02:00:00 -1.3 3 Nordeste 6 Nordeste 0 -- -- 95
2020-01-14 01:00:00 -0.9 3 Sur 8 Sudeste 0 -- -- 95
2020-01-14 00:00:00 -0.9 2 Sur 7 Sudoeste 0 -- -- 94
2020-01-13 23:00:00 -0.3 2 Sur 5 Oeste 0 -- -- 94
2020-01-13 22:00:00 0.4 0 Calma 6 Oeste 0 -- -- 93
2020-01-13 21:00:00 1.5 0 Calma 8 Sudoeste 0 -- -- 93
2020-01-13 20:00:00 1.4 5 Sudeste 10 Sur 0 -- -- 90
2020-01-13 19:00:00 2.1 8 Sur 13 Sur 0 -- -- 88
2020-01-13 18:00:00 3.3 14 Sur 18 Sur 0 -- -- 85
2020-01-13 17:00:00 4.8 8 Sur 18 Sudeste 0 -- -- 79
2020-01-13 16:00:00 5.7 4 Este 8 Oeste 0 -- -- 72
2020-01-13 15:00:00 5.7 4 Nordeste 7 Nordeste 0 -- -- 70
2020-01-13 14:00:00 4.5 3 Oeste 9 Noroeste 0 -- -- 74
2020-01-13 13:00:00 2.6 4 Noroeste 8 Noroeste 0 -- -- 85
2020-01-13 12:00:00 1.3 3 Noroeste 5 Noroeste 0 -- -- 85
2020-01-13 11:00:00 -0.3 3 Noroeste 5 Noroeste 0 -- -- 94
2020-01-13 10:00:00 -1.8 2 Sur 4 Oeste 0 -- -- 95
2020-01-13 09:00:00 -3 0 Calma 5 Sur 0 -- -- 95
2020-01-13 08:00:00 -2.7 0 Calma 8 Sur 0 -- -- 95
2020-01-13 07:00:00 -2.3 4 Sur 5 Sur 0 -- -- 94
2020-01-13 06:00:00 -2 2 Oeste 5 Sudoeste 0 -- -- 93
2020-01-13 05:00:00 -1.6 3 Sur 5 Sur 0 -- -- 94
2020-01-13 04:00:00 -1.1 0 Calma 4 Sudeste 0 -- -- 92
2020-01-13 03:00:00 -0.6 3 Sudeste 5 Sudeste 0 -- -- 93
2020-01-13 02:00:00 -0.5 0 Calma 4 Sudeste 0 -- -- 92
2020-01-13 01:00:00 -0.1 4 Sudeste 5 Sudeste 0 -- -- 92
2020-01-13 00:00:00 0.8 3 Sudeste 9 Sur 0 -- -- 90
2020-01-12 23:00:00 1.2 4 Oeste 6 Oeste 0 -- -- 89
2020-01-12 22:00:00 1.5 4 Sudoeste 5 Sudoeste 0 -- -- 87
2020-01-12 21:00:00 3.1 2 Noroeste 9 Oeste 0 -- -- 82
2020-01-12 20:00:00 3.8 0 Calma 9 Sur 0 -- -- 80
2020-01-12 19:00:00 5.4 2 Sur 8 Sudoeste 0 -- -- 74
2020-01-12 18:00:00 6.5 3 Sur 11 Sudoeste 0 -- -- 73
2020-01-12 17:00:00 7.9 0 Calma 3 Norte 0 -- -- 67
2020-01-12 16:00:00 8 0 Calma 4 Norte 0 -- -- 64
2020-01-12 15:00:00 7.7 3 Norte 7 Nordeste 0 -- -- 65
2020-01-12 14:00:00 5.6 3 Nordeste 6 Norte 0 -- -- 70
2020-01-12 13:00:00 3.3 3 Noroeste 6 Noroeste 0 -- -- 79
2020-01-12 12:00:00 1.5 3 Nordeste 5 Nordeste 0 -- -- 86
2020-01-12 11:00:00 -0.2 3 Nordeste 4 Nordeste 0 -- -- 91
2020-01-12 10:00:00 -2 3 Sudeste 7 Sudeste 0 -- -- 96
2020-01-12 09:00:00 -3.2 3 Sudeste 8 Sudeste 0 -- -- 95
2020-01-12 08:00:00 -2.5 6 Sudeste 8 Sudeste 0 -- -- 95
2020-01-12 07:00:00 -2.7 0 Calma 4 Sudeste 0 -- -- 95
2020-01-12 06:00:00 -2.3 0 Calma 5 Sudeste 0 -- -- 95
2020-01-12 05:00:00 -1.8 3 Este 8 Sudeste 0 -- -- 94
2020-01-12 04:00:00 -1.8 4 Sudeste 7 Sudeste 0 -- -- 94
2020-01-12 03:00:00 -1.5 0 Calma 4 Este 0 -- -- 92
2020-01-12 02:00:00 -0.9 2 Este 8 Sudeste 0 -- -- 90
2020-01-12 01:00:00 0 6 Sudeste 9 Este 0 -- -- 91
2020-01-12 00:00:00 0.3 4 Sudeste 7 Este 0 -- -- 91
2020-01-11 23:00:00 0.7 4 Sudoeste 7 Oeste 0 -- -- 90
2020-01-11 22:00:00 1.4 3 Oeste 6 Sudoeste 0 -- -- 89
2020-01-11 21:00:00 2.6 0 Calma 6 Este 0 -- -- 84
2020-01-11 20:00:00 4.1 3 Este 8 Sudeste 0 -- -- 80
2020-01-11 19:00:00 4.9 2 Este 9 Sudoeste 0 -- -- 78
2020-01-11 18:00:00 6.4 7 Sur 10 Sur 0 -- -- 73
2020-01-11 17:00:00 9 3 Sur 6 Sur 0 -- -- 65
2020-01-11 16:00:00 10.1 0 Calma 7 Este 0 -- -- 58
2020-01-11 15:00:00 10.3 4 Sudeste 8 Este 0 -- -- 57
2020-01-11 14:00:00 9 5 Este 12 Este 0 -- -- 60
2020-01-11 13:00:00 7.7 3 Este 6 Norte 0 -- -- 63
2020-01-11 12:00:00 5.5 3 Noroeste 6 Noroeste 0 -- -- 72
2020-01-11 11:00:00 3.1 3 Norte 5 Noroeste 0 -- -- 79
2020-01-11 10:00:00 1 2 Noroeste 7 Noroeste 0 -- -- 86
2020-01-11 09:00:00 -0.2 3 Oeste 11 Este 0 -- -- 87
2020-01-11 08:00:00 2.7 3 Este 11 Este 0 -- -- 79
2020-01-11 07:00:00 3.8 6 Este 14 Este 0 -- -- 74
2020-01-11 06:00:00 4.1 5 Este 21 Nordeste 0 -- -- 73
2020-01-11 05:00:00 4.9 9 Este 21 Este 0 -- -- 72
2020-01-11 04:00:00 5.5 11 Norte 21 Norte 0 -- -- 71
2020-01-11 03:00:00 5.9 8 Norte 30 Nordeste 0 -- -- 67
2020-01-11 02:00:00 5.7 10 Norte 21 Noroeste 0 -- -- 70
2020-01-11 01:00:00 5.9 9 Norte 21 Este 0 -- -- 70
2020-01-11 00:00:00 6.5 8 Norte 26 Norte 0 -- -- 69
2020-01-10 23:00:00 6.9 15 Norte 31 Norte 0 -- -- 67
2020-01-10 22:00:00 7.5 20 Norte 42 Norte 0 -- -- 70
2020-01-10 21:00:00 7.3 10 Norte 23 Norte 0 -- -- 73
2020-01-10 20:00:00 7.1 10 Norte 20 Noroeste 0 -- -- 75
2020-01-10 19:00:00 7.3 6 Norte 24 Noroeste 0 -- -- 75
2020-01-10 18:00:00 7.7 10 Noroeste 25 Noroeste 0 -- -- 74
2020-01-10 17:00:00 8.2 9 Noroeste 27 Norte 0 -- -- 73
2020-01-10 16:00:00 8.7 11 Norte 26 Noroeste 0 -- -- 74
2020-01-10 15:00:00 9 13 Noroeste 31 Noroeste 0 -- -- 72
2020-01-10 14:00:00 9.5 18 Noroeste 33 Noroeste 0 -- -- 69
2020-01-10 13:00:00 8.9 13 Noroeste 27 Noroeste 0 -- -- 74
2020-01-10 12:00:00 8.2 15 Noroeste 32 Noroeste 0.2 -- -- 77
2020-01-10 11:00:00 7.9 17 Noroeste 28 Noroeste 0 -- -- 75
2020-01-10 10:00:00 6 6 Noroeste 15 Norte 0 -- -- 84
2020-01-10 09:00:00 5.7 4 Noroeste 19 Norte 0 -- -- 80
2020-01-10 08:00:00 6.4 12 Norte 41 Norte 0 -- -- 77
2020-01-10 07:00:00 6.5 10 Norte 21 Norte 0 -- -- 76
2020-01-10 06:00:00 7.2 15 Noroeste 32 Noroeste 0 -- -- 74
2020-01-10 05:00:00 7.2 8 Noroeste 35 Norte 0 -- -- 78
2020-01-10 04:00:00 7.5 8 Norte 19 Noroeste 0 -- -- 79
2020-01-10 03:00:00 6.9 6 Oeste 16 Noroeste 0 -- -- 83
2020-01-10 02:00:00 6.6 3 Nordeste 13 Este 0 -- -- 86
2020-01-10 01:00:00 6.4 4 Sudeste 15 Sudeste 0 -- -- 89
2020-01-10 00:00:00 5.8 8 Este 14 Este 0.6 -- -- 98
2020-01-09 23:00:00 4.4 4 Sudoeste 5 Sur 0 -- -- 98
2020-01-09 22:00:00 4.5 4 Sur 7 Sur 0 -- -- 97
2020-01-09 21:00:00 4.5 5 Este 17 Sur 0 -- -- 96
2020-01-09 20:00:00 5 15 Sur 22 Sur 0.2 -- -- 96
2020-01-09 19:00:00 5 4 Norte 23 Sur 0 -- -- 96
2020-01-09 18:00:00 5.1 0 Calma 8 Noroeste 0 -- -- 94
2020-01-09 17:00:00 5.5 2 Este 22 Sudoeste 0 -- -- 93
2020-01-09 16:00:00 6 10 Sur 26 Sur 0 -- -- 91
2020-01-09 15:00:00 6.2 14 Sur 23 Sudoeste 0 -- -- 98
2020-01-09 14:00:00 4.6 9 Sudeste 21 Sudeste 0 -- -- 99
2020-01-09 13:00:00 3.1 4 Norte 9 Este 0 -- -- 99
2020-01-09 12:00:00 2.1 6 Nordeste 10 Este 0 -- -- 99
2020-01-09 11:00:00 1.2 3 Nordeste 9 Oeste 0 -- -- 99
2020-01-09 10:00:00 0.5 4 Sudoeste 6 Sudoeste 0 -- -- 99
2020-01-09 09:00:00 0.3 3 Noroeste 6 Norte 0 -- -- 98
2020-01-09 08:00:00 0.4 0 Calma 5 Noroeste 0 -- -- 98
2020-01-09 07:00:00 0.6 3 Noroeste 5 Noroeste 0 -- -- 98
2020-01-09 06:00:00 0.8 2 Sudoeste 7 Noroeste 0 -- -- 98
2020-01-09 05:00:00 0.8 3 Noroeste 6 Noroeste 0 -- -- 98
2020-01-09 04:00:00 0.7 2 Sudeste 5 Sudeste 0 -- -- 98
2020-01-09 03:00:00 1 3 Sudoeste 6 Sur 0 -- -- 97
2020-01-09 02:00:00 1.5 3 Sur 5 Sur 0 -- -- 97
2020-01-09 01:00:00 1.4 4 Sur 6 Sur 0 -- -- 97
2020-01-09 00:00:00 1.4 0 Calma 6 Este 0 -- -- 96
2020-01-08 23:00:00 2.1 4 Este 9 Sudoeste 0 -- -- 95
2020-01-08 22:00:00 2.8 3 Oeste 20 Sur 0 -- -- 94
2020-01-08 21:00:00 3.2 4 Este 9 Sudeste 0 -- -- 93
2020-01-08 20:00:00 4.1 3 Nordeste 10 Sur 0 -- -- 90
2020-01-08 19:00:00 4.9 8 Sur 22 Sur 0 -- -- 88
2020-01-08 18:00:00 6.5 10 Sur 20 Sur 0 -- -- 83
2020-01-08 17:00:00 8.3 6 Sudoeste 20 Sudoeste 0 -- -- 75
2020-01-08 16:00:00 9.8 17 Sudoeste 25 Sudoeste 0 -- -- 68
2020-01-08 15:00:00 11.8 15 Sur 24 Sur 0 -- -- 58
2020-01-08 14:00:00 9.9 5 Noroeste 9 Noroeste 0 -- -- 75
2020-01-08 13:00:00 7.8 3 Noroeste 6 Noroeste 0 -- -- 85
2020-01-08 12:00:00 4.8 0 Calma 5 Nordeste 0 -- -- 90
2020-01-08 11:00:00 2.5 2 Nordeste 3 Nordeste 0 -- -- 97
2020-01-08 10:00:00 0.7 0 Calma 4 Sudeste 0 -- -- 97
2020-01-08 09:00:00 0.4 0 Calma 6 Sudoeste 0 -- -- 98
2020-01-08 08:00:00 0.3 2 Sudoeste 3 Sur 0 -- -- 98
2020-01-08 07:00:00 0.9 0 Calma 4 Este 0 -- -- 98
2020-01-08 06:00:00 2.3 0 Calma 4 Sur 0 -- -- 97
2020-01-08 05:00:00 2.2 2 Oeste 4 Oeste 0 -- -- 98
2020-01-08 04:00:00 1 2 Oeste 4 Oeste 0 -- -- 97
2020-01-08 03:00:00 1.6 3 Sudoeste 5 Sudeste 0 -- -- 96
2020-01-08 02:00:00 2.6 2 Este 6 Sudeste 0 -- -- 96
2020-01-08 01:00:00 2.8 2 Este 6 Sur 0 -- -- 96
2020-01-08 00:00:00 2.6 2 Sudeste 5 Sudeste 0 -- -- 95
2020-01-07 23:00:00 3.1 0 Calma 8 Sur 0 -- -- 95
2020-01-07 22:00:00 3 2 Este 6 Nordeste 0 -- -- 93
2020-01-07 21:00:00 4.5 2 Este 8 Norte 0 -- -- 92
2020-01-07 20:00:00 4.7 3 Este 5 Este 0 -- -- 91
2020-01-07 19:00:00 5.5 0 Calma 4 Este 0 -- -- 87
2020-01-07 18:00:00 7.1 0 Calma 4 Sudeste 0 -- -- 83
2020-01-07 17:00:00 7.6 0 Calma 3 Noroeste 0 -- -- 79
2020-01-07 16:00:00 7.9 0 Calma 5 Noroeste 0 -- -- 75
2020-01-07 15:00:00 8.3 2 Norte 4 Nordeste 0 -- -- 74
2020-01-07 14:00:00 6.7 3 Nordeste 5 Nordeste 0 -- -- 78
2020-01-07 13:00:00 4.8 4 Nordeste 6 Este 0 -- -- 83
2020-01-07 12:00:00 2.7 0 Calma 5 Este 0 -- -- 90
2020-01-07 11:00:00 1.5 2 Este 5 Nordeste 0 -- -- 92
2020-01-07 10:00:00 -0.1 3 Sur 6 Sudoeste 0 -- -- 97
2020-01-07 09:00:00 -1.6 2 Sudoeste 7 Sudeste 0 -- -- 95
2020-01-07 08:00:00 -0.7 2 Sudeste 8 Este 0 -- -- 95
2020-01-07 07:00:00 -0.3 4 Este 6 Sudeste 0 -- -- 95
2020-01-07 06:00:00 0.3 2 Sudeste 5 Sudoeste 0 -- -- 96
2020-01-07 05:00:00 0.2 2 Sudoeste 10 Noroeste 0 -- -- 95
2020-01-07 04:00:00 1.2 2 Sudeste 8 Sudeste 0 -- -- 94
2020-01-07 03:00:00 1.2 3 Sudeste 15 Sudoeste 0 -- -- 94
2020-01-07 02:00:00 1.1 5 Este 11 Sudeste 0 -- -- 96
2020-01-07 01:00:00 2.1 3 Sudoeste 12 Sudeste 0 -- -- 89
2020-01-07 00:00:00 2.9 4 Sudoeste 11 Nordeste 0 -- -- 93
2020-01-06 23:00:00 1 3 Oeste 10 Sudeste 0 -- -- 97
2020-01-06 22:00:00 -0.9 3 Este 8 Este 0 -- -- 96
2020-01-06 21:00:00 0 0 Calma 6 Sudoeste 0 -- -- 96
2020-01-06 20:00:00 0.5 2 Norte 8 Sudeste 0 -- -- 95
2020-01-06 19:00:00 1.4 3 Este 6 Sudeste 0 -- -- 95
2020-01-06 18:00:00 2.1 3 Sur 6 Sudoeste 0 -- -- 94
2020-01-06 17:00:00 3.3 3 Noroeste 6 Noroeste 0 -- -- 94
2020-01-06 16:00:00 3.6 2 Nordeste 6 Nordeste 0 -- -- 97
2020-01-06 15:00:00 2.7 3 Nordeste 5 Nordeste 0 -- -- 98
2020-01-06 14:00:00 1.7 2 Nordeste 5 Norte 0 -- -- 98
2020-01-06 13:00:00 0.6 3 Noroeste 6 Nordeste 0 -- -- 98
2020-01-06 12:00:00 -0.4 3 Nordeste 5 Este 0 -- -- 97
2020-01-06 11:00:00 -1 3 Nordeste 5 Nordeste 0 -- -- 97
2020-01-06 10:00:00 -1.7 3 Sur 5 Sudoeste 0 -- -- 97